Time;durP1;ratioP1;P1;durP2;ratioP2;P2;SDS_P1;SDS_P2;PMS_P1;PMS_P2;Temp;Humidity;BMP_temperature;BMP_pressure;BME280_temperature;BME280_humidity;BME280_pressure;Samples;Min_cycle;Max_cycle;Signal;HPM_P1;HPM_P2
2023/04/04 00:01:59;;;;;;;1.67;1.50;;;8.80;43.80;;;;;;5075716;28;20460;-72
2023/04/04 00:04:26;;;;;;;2.30;1.70;;;8.70;43.80;;;;;;5087613;28;20475;-71
2023/04/04 00:06:53;;;;;;;2.53;1.50;;;8.70;43.90;;;;;;5072219;28;20447;-71
2023/04/04 00:09:20;;;;;;;3.07;1.70;;;8.70;43.80;;;;;;5072195;28;20475;-71
2023/04/04 00:11:47;;;;;;;2.03;1.60;;;8.70;43.80;;;;;;5071350;28;20447;-72
2023/04/04 00:14:14;;;;;;;1.40;1.30;;;8.70;44.00;;;;;;5072729;28;20950;-71
2023/04/04 00:16:42;;;;;;;1.40;1.30;;;8.60;43.90;;;;;;5072191;28;20489;-72
2023/04/04 00:19:13;;;;;;;2.63;1.70;;;8.50;43.80;;;;;;5081713;28;20458;-71
2023/04/04 00:21:39;;;;;;;2.23;1.40;;;8.50;43.90;;;;;;5073147;28;20459;-72
2023/04/04 00:24:07;;;;;;;1.90;1.50;;;8.40;44.00;;;;;;5071301;28;20483;-72
2023/04/04 00:26:34;;;;;;;2.93;1.40;;;8.40;44.10;;;;;;5070967;28;20439;-71
2023/04/04 00:29:01;;;;;;;2.33;1.70;;;8.40;44.70;;;;;;5071613;28;20486;-72
2023/04/04 00:31:28;;;;;;;2.13;1.53;;;8.40;44.00;;;;;;5071555;28;20454;-70
2023/04/04 00:33:56;;;;;;;2.30;1.50;;;8.40;44.30;;;;;;5070381;28;20455;-70
2023/04/04 00:36:23;;;;;;;4.60;1.80;;;8.50;44.30;;;;;;5071597;28;20566;-70
2023/04/04 00:38:50;;;;;;;2.63;1.57;;;8.50;44.40;;;;;;5071300;28;20443;-71
2023/04/04 00:41:17;;;;;;;2.80;1.80;;;8.40;44.10;;;;;;5071345;28;20471;-72
2023/04/04 00:43:44;;;;;;;4.30;1.67;;;8.40;44.20;;;;;;5071238;28;20475;-71
2023/04/04 00:46:13;;;;;;;2.40;1.50;;;8.40;44.20;;;;;;5071558;28;20525;-71
2023/04/04 00:48:41;;;;;;;3.97;1.67;;;8.40;44.20;;;;;;5072116;28;20542;-71
2023/04/04 00:51:09;;;;;;;2.67;1.60;;;8.40;44.30;;;;;;5052312;28;20498;-72
2023/04/04 00:53:37;;;;;;;1.90;1.50;;;8.30;44.30;;;;;;5071448;28;20443;-71
2023/04/04 00:56:04;;;;;;;3.20;1.90;;;8.30;44.70;;;;;;5071176;28;20983;-71
2023/04/04 00:58:31;;;;;;;2.87;1.57;;;8.30;44.80;;;;;;5071360;28;20483;-72
2023/04/04 01:01:01;;;;;;;2.73;1.50;;;8.30;44.80;;;;;;5071473;28;20447;-72
2023/04/04 01:03:28;;;;;;;2.93;1.80;;;8.20;44.80;;;;;;5071090;28;20483;-71
2023/04/04 01:05:55;;;;;;;2.60;1.70;;;8.20;44.80;;;;;;5071425;28;20482;-72
2023/04/04 01:08:26;;;;;;;2.00;1.60;;;8.20;44.90;;;;;;5071671;28;20494;-71
2023/04/04 01:10:53;;;;;;;2.23;1.77;;;8.20;44.90;;;;;;5076863;28;20868;-71
2023/04/04 01:13:20;;;;;;;2.67;1.70;;;8.20;45.10;;;;;;5069441;28;20448;-71
2023/04/04 01:15:48;;;;;;;3.40;1.80;;;8.10;45.40;;;;;;5068788;28;20454;-71
2023/04/04 01:18:19;;;;;;;4.10;1.50;;;8.10;45.80;;;;;;5071755;28;20888;-72
2023/04/04 01:20:55;;;;;;;3.73;1.90;;;8.00;45.70;;;;;;5076847;28;20477;-71
2023/04/04 01:23:27;;;;;;;3.87;1.80;;;8.00;45.90;;;;;;5063231;28;20478;-71
2023/04/04 01:26:02;;;;;;;3.93;1.70;;;7.90;45.90;;;;;;5072751;28;20439;-72
2023/04/04 01:28:29;;;;;;;2.10;1.57;;;7.90;46.00;;;;;;5077861;28;20454;-72
2023/04/04 01:30:59;;;;;;;2.77;1.60;;;7.90;45.90;;;;;;5076255;28;20458;-71
2023/04/04 01:33:30;;;;;;;2.87;1.30;;;7.70;45.70;;;;;;5068874;28;20452;-71
2023/04/04 01:36:04;;;;;;;2.60;1.50;;;7.80;45.70;;;;;;5069442;28;20481;-71
2023/04/04 01:38:40;;;;;;;2.00;1.80;;;7.80;45.90;;;;;;5074672;28;20950;-71
2023/04/04 01:41:10;;;;;;;3.57;1.77;;;7.80;46.00;;;;;;5079985;28;20884;-72
2023/04/04 01:43:37;;;;;;;2.20;1.30;;;7.80;46.10;;;;;;5070325;28;21008;-70
2023/04/04 01:46:05;;;;;;;2.30;1.60;;;7.80;46.20;;;;;;5070541;28;20458;-71
2023/04/04 01:48:32;;;;;;;2.37;1.73;;;7.70;46.20;;;;;;5070968;28;20939;-71
2023/04/04 01:51:00;;;;;;;3.40;1.87;;;7.70;46.50;;;;;;5069675;28;20475;-71
2023/04/04 01:53:27;;;;;;;3.43;1.70;;;7.70;46.80;;;;;;5070129;28;20454;-71
2023/04/04 01:55:54;;;;;;;2.30;1.70;;;7.60;46.80;;;;;;5070844;28;20443;-71
2023/04/04 01:58:23;;;;;;;2.47;1.43;;;7.60;46.90;;;;;;5070166;28;20507;-71
2023/04/04 02:00:49;;;;;;;2.47;1.40;;;7.60;47.10;;;;;;5069961;28;21108;-71
2023/04/04 02:03:16;;;;;;;2.00;1.53;;;7.50;46.70;;;;;;5070155;28;20546;-71
2023/04/04 02:05:43;;;;;;;3.50;1.43;;;7.50;47.00;;;;;;5069873;28;20479;-70
2023/04/04 02:08:11;;;;;;;2.63;1.50;;;7.50;47.10;;;;;;5069460;28;20501;-72
2023/04/04 02:10:37;;;;;;;3.60;1.77;;;7.50;47.30;;;;;;5073599;28;20459;-70
2023/04/04 02:13:05;;;;;;;2.57;1.90;;;7.40;47.00;;;;;;5073945;28;20573;-72
2023/04/04 02:15:34;;;;;;;2.13;1.60;;;7.40;47.00;;;;;;5073856;28;20538;-71
2023/04/04 02:18:02;;;;;;;1.97;1.50;;;7.40;47.50;;;;;;5074543;28;20449;-71
2023/04/04 02:20:29;;;;;;;2.87;1.67;;;7.30;47.30;;;;;;5087877;28;20478;-71
2023/04/04 02:22:56;;;;;;;4.27;1.90;;;7.30;47.30;;;;;;5084217;28;20458;-71
2023/04/04 02:25:25;;;;;;;1.63;1.50;;;7.30;48.00;;;;;;5074117;28;20544;-72
2023/04/04 02:27:52;;;;;;;4.80;1.80;;;7.30;47.60;;;;;;5074210;28;20449;-71
2023/04/04 02:30:19;;;;;;;4.13;1.73;;;7.20;47.50;;;;;;5078869;28;20450;-72
2023/04/04 02:32:47;;;;;;;2.77;1.40;;;7.20;47.60;;;;;;5074193;28;20456;-71
2023/04/04 02:35:15;;;;;;;1.87;1.43;;;7.20;47.60;;;;;;5074121;28;20463;-71
2023/04/04 02:37:44;;;;;;;2.33;1.97;;;7.20;47.80;;;;;;5073516;28;20462;-72
2023/04/04 02:40:12;;;;;;;2.33;1.73;;;7.20;47.60;;;;;;5077131;28;20958;-71
2023/04/04 02:42:42;;;;;;;3.20;1.63;;;7.20;47.70;;;;;;5074492;28;20832;-71
2023/04/04 02:45:13;;;;;;;3.03;1.53;;;7.10;47.50;;;;;;5093432;28;20485;-72
2023/04/04 02:47:40;;;;;;;3.75;1.90;;;7.10;47.70;;;;;;5084353;28;20589;-70
2023/04/04 02:50:10;;;;;;;2.63;1.60;;;7.10;47.50;;;;;;5073739;28;20288;-71
2023/04/04 02:52:37;;;;;;;3.57;1.77;;;7.10;47.70;;;;;;5073484;28;20455;-71
2023/04/04 02:55:05;;;;;;;2.67;1.73;;;7.00;48.00;;;;;;5072042;28;20562;-71
2023/04/04 02:57:32;;;;;;;3.83;1.57;;;7.00;48.00;;;;;;5072655;28;20576;-71
2023/04/04 02:59:59;;;;;;;3.13;1.80;;;7.00;48.00;;;;;;5074054;28;20444;-72
2023/04/04 03:02:26;;;;;;;2.47;1.70;;;7.00;48.00;;;;;;5074155;28;20225;-71
2023/04/04 03:04:53;;;;;;;1.50;1.40;;;7.00;48.10;;;;;;5076975;28;20549;-71
2023/04/04 03:07:21;;;;;;;3.17;1.80;;;6.90;48.10;;;;;;5073441;28;20451;-71
2023/04/04 03:09:48;;;;;;;1.80;1.60;;;6.90;48.30;;;;;;5075127;28;20852;-71
2023/04/04 03:12:15;;;;;;;3.20;1.52;;;6.90;48.20;;;;;;5084611;28;20810;-71
2023/04/04 03:14:42;;;;;;;2.45;1.70;;;6.90;48.30;;;;;;5072657;28;20201;-71
2023/04/04 03:17:13;;;;;;;3.22;1.55;;;6.80;48.30;;;;;;5073057;28;20688;-70
2023/04/04 03:19:40;;;;;;;2.03;1.50;;;6.90;48.50;;;;;;5072067;28;20702;-71
2023/04/04 03:22:07;;;;;;;2.20;1.83;;;6.80;49.20;;;;;;5082940;28;20202;-71
2023/04/04 03:24:35;;;;;;;2.80;1.60;;;6.80;48.60;;;;;;5075662;28;20483;-71
2023/04/04 03:27:02;;;;;;;3.23;2.07;;;6.70;48.70;;;;;;5071825;28;20809;-72
2023/04/04 03:29:30;;;;;;;1.70;1.50;;;6.70;48.70;;;;;;5072871;28;20447;-71
2023/04/04 03:31:56;;;;;;;2.22;1.70;;;6.70;48.60;;;;;;5092484;28;20278;-71
2023/04/04 03:34:26;;;;;;;4.33;2.03;;;6.70;48.70;;;;;;5073353;28;20591;-71
2023/04/04 03:36:53;;;;;;;3.25;1.73;;;6.70;49.00;;;;;;5072910;28;20505;-71
2023/04/04 03:39:20;;;;;;;3.73;1.67;;;6.70;48.90;;;;;;5071603;28;20747;-71
2023/04/04 03:41:48;;;;;;;1.88;1.58;;;6.70;48.90;;;;;;5081474;28;20467;-70
2023/04/04 03:44:15;;;;;;;2.05;1.92;;;6.70;48.90;;;;;;5072112;28;20231;-70
2023/04/04 03:46:42;;;;;;;2.40;1.95;;;6.60;49.10;;;;;;5071763;28;20899;-71
2023/04/04 03:49:08;;;;;;;2.05;1.60;;;6.60;48.90;;;;;;5072403;28;20197;-71
2023/04/04 03:51:35;;;;;;;4.50;1.98;;;6.60;48.80;;;;;;5083838;28;20913;-71
2023/04/04 03:54:02;;;;;;;3.23;1.90;;;6.50;49.00;;;;;;5072042;28;20742;-71
2023/04/04 03:56:30;;;;;;;4.65;2.03;;;6.50;49.00;;;;;;5071031;28;20448;-71
2023/04/04 03:58:58;;;;;;;3.03;1.70;;;6.60;49.00;;;;;;5062200;28;20210;-71
2023/04/04 04:01:25;;;;;;;3.20;1.70;;;6.60;49.00;;;;;;5072060;28;20221;-72
2023/04/04 04:03:52;;;;;;;3.38;2.47;;;6.60;48.90;;;;;;5071661;28;20231;-70
2023/04/04 04:06:19;;;;;;;2.72;2.10;;;6.50;49.20;;;;;;5071196;28;20217;-70
2023/04/04 04:08:47;;;;;;;2.30;2.10;;;6.50;49.00;;;;;;5071667;28;20225;-71
2023/04/04 04:11:13;;;;;;;2.33;1.73;;;6.50;48.90;;;;;;5071842;28;20351;-71
2023/04/04 04:13:40;;;;;;;2.75;1.60;;;6.50;48.90;;;;;;5082123;28;20199;-70
2023/04/04 04:16:08;;;;;;;2.80;1.90;;;6.50;49.70;;;;;;5071603;28;20197;-71
2023/04/04 04:18:36;;;;;;;2.55;1.83;;;6.50;49.00;;;;;;5070961;28;20197;-71
2023/04/04 04:21:03;;;;;;;2.25;1.73;;;6.50;49.10;;;;;;5083755;28;20292;-72
2023/04/04 04:23:31;;;;;;;5.88;2.00;;;6.40;49.10;;;;;;5076358;28;20216;-71
2023/04/04 04:25:58;;;;;;;4.28;1.77;;;6.40;49.10;;;;;;5070860;28;20221;-71
2023/04/04 04:28:24;;;;;;;3.43;1.83;;;6.40;49.00;;;;;;5071729;28;20545;-71
2023/04/04 04:30:52;;;;;;;2.70;2.13;;;6.40;49.50;;;;;;5072851;28;21158;-71
2023/04/04 04:33:20;;;;;;;4.35;2.08;;;6.40;49.10;;;;;;5072943;28;20197;-71
2023/04/04 04:35:47;;;;;;;2.20;1.60;;;6.40;49.10;;;;;;5071750;28;20200;-71
2023/04/04 04:38:14;;;;;;;2.70;1.80;;;6.40;49.20;;;;;;5072660;28;20232;-71
2023/04/04 04:40:41;;;;;;;2.80;1.80;;;6.40;49.20;;;;;;5070853;28;20258;-72
2023/04/04 04:43:08;;;;;;;3.53;1.65;;;6.40;49.00;;;;;;5061365;28;20235;-70
2023/04/04 04:45:35;;;;;;;3.22;1.73;;;6.30;49.10;;;;;;5051420;28;20759;-72
2023/04/04 04:48:02;;;;;;;3.72;2.00;;;6.30;49.00;;;;;;5070371;28;20215;-71
2023/04/04 04:50:30;;;;;;;2.22;1.80;;;6.40;49.10;;;;;;5072777;28;20221;-71
2023/04/04 04:52:57;;;;;;;3.47;1.83;;;6.30;49.20;;;;;;5071898;28;20201;-71
2023/04/04 04:55:36;;;;;;;2.88;2.10;;;6.30;49.20;;;;;;5071166;28;20209;-71
2023/04/04 04:58:03;;;;;;;2.43;2.03;;;6.30;49.40;;;;;;5071559;28;20594;-71
2023/04/04 05:00:30;;;;;;;2.88;1.73;;;6.30;49.90;;;;;;5073463;28;20463;-72
2023/04/04 05:02:59;;;;;;;3.93;1.93;;;6.30;49.80;;;;;;5070585;28;20201;-72
2023/04/04 05:05:26;;;;;;;2.35;1.92;;;6.30;49.60;;;;;;5070513;28;20493;-71
2023/04/04 05:07:54;;;;;;;2.75;1.55;;;6.20;49.50;;;;;;5070577;28;20201;-70
2023/04/04 05:10:21;;;;;;;2.15;1.95;;;6.30;49.40;;;;;;5072522;28;20253;-70
2023/04/04 05:12:48;;;;;;;3.58;2.05;;;6.30;49.50;;;;;;5074515;28;20202;-70
2023/04/04 05:15:15;;;;;;;3.60;1.98;;;6.20;49.60;;;;;;5074649;28;20193;-72
2023/04/04 05:17:42;;;;;;;2.08;1.70;;;6.20;49.50;;;;;;5082895;28;20233;-72
2023/04/04 05:20:10;;;;;;;4.10;1.97;;;6.20;49.60;;;;;;5076372;28;20243;-72
2023/04/04 05:22:43;;;;;;;2.70;2.07;;;6.20;49.80;;;;;;5075803;28;20462;-72
2023/04/04 05:25:12;;;;;;;5.07;2.08;;;6.30;49.60;;;;;;5070215;28;20512;-68
2023/04/04 05:27:39;;;;;;;3.00;1.60;;;6.30;49.70;;;;;;5071114;28;20261;-70
2023/04/04 05:30:08;;;;;;;3.78;1.88;;;6.30;49.80;;;;;;5080564;28;20284;-65
2023/04/04 05:32:35;;;;;;;2.53;1.95;;;6.30;49.70;;;;;;5075616;28;20200;-65
2023/04/04 05:35:02;;;;;;;4.32;1.92;;;6.30;49.60;;;;;;5086059;28;20219;-66
2023/04/04 05:37:28;;;;;;;3.03;1.85;;;6.40;49.60;;;;;;5074772;28;20224;-68
2023/04/04 05:39:56;;;;;;;2.30;1.90;;;6.40;49.30;;;;;;5070528;28;20197;-64
2023/04/04 05:42:24;;;;;;;4.63;2.10;;;6.50;49.30;;;;;;5071605;28;20506;-66
2023/04/04 05:44:51;;;;;;;3.92;2.30;;;6.50;49.40;;;;;;5072594;28;20643;-64
2023/04/04 05:47:20;;;;;;;3.58;2.67;;;6.60;49.40;;;;;;5082351;28;20197;-64
2023/04/04 05:49:47;;;;;;;5.77;3.20;;;6.60;49.40;;;;;;5073393;28;20201;-66
2023/04/04 05:52:15;;;;;;;4.55;2.25;;;6.60;49.40;;;;;;5074895;28;20497;-65
2023/04/04 05:54:41;;;;;;;4.47;2.72;;;6.70;49.20;;;;;;5073805;28;20224;-65
2023/04/04 05:57:08;;;;;;;4.05;2.60;;;6.70;49.10;;;;;;5074170;28;20375;-65
2023/04/04 05:59:37;;;;;;;3.47;2.10;;;6.70;49.10;;;;;;5072831;28;20197;-65
2023/04/04 06:02:05;;;;;;;4.40;2.10;;;6.70;48.90;;;;;;5071136;28;20479;-67
2023/04/04 06:04:31;;;;;;;3.53;2.15;;;6.80;49.10;;;;;;5072876;28;20286;-66
2023/04/04 06:06:59;;;;;;;2.90;2.03;;;6.80;48.80;;;;;;5073706;28;20308;-66
2023/04/04 06:09:27;;;;;;;2.42;1.65;;;6.80;49.00;;;;;;5073863;28;20455;-66
2023/04/04 06:11:54;;;;;;;2.60;1.93;;;6.80;49.20;;;;;;5073331;28;20224;-67
2023/04/04 06:14:21;;;;;;;2.75;1.95;;;6.80;48.90;;;;;;5073626;28;20447;-67
2023/04/04 06:16:49;;;;;;;2.60;1.80;;;6.90;49.00;;;;;;5073865;28;20589;-66
2023/04/04 06:19:16;;;;;;;4.83;2.17;;;6.90;49.10;;;;;;5073687;28;20494;-66
2023/04/04 06:21:43;;;;;;;2.43;2.10;;;7.00;49.00;;;;;;5072864;28;20564;-65
2023/04/04 06:24:10;;;;;;;4.17;2.13;;;7.00;48.70;;;;;;5073118;28;20543;-65
2023/04/04 06:26:37;;;;;;;5.17;2.20;;;7.10;48.50;;;;;;5073504;28;20544;-66
2023/04/04 06:29:04;;;;;;;3.47;2.00;;;7.00;48.20;;;;;;5073300;28;20846;-66
2023/04/04 06:31:31;;;;;;;3.43;2.00;;;7.00;48.40;;;;;;5072940;28;20931;-65
2023/04/04 06:34:00;;;;;;;3.03;2.13;;;7.10;48.50;;;;;;5072991;28;20447;-66
2023/04/04 06:36:27;;;;;;;2.67;1.93;;;7.20;48.60;;;;;;5073041;28;20551;-66
2023/04/04 06:38:54;;;;;;;3.33;2.43;;;7.20;48.20;;;;;;5073359;28;20447;-66
2023/04/04 06:41:21;;;;;;;4.23;2.23;;;7.20;48.00;;;;;;5073097;28;20511;-65
2023/04/04 06:43:48;;;;;;;5.73;2.30;;;7.30;48.00;;;;;;5072446;28;20798;-66
2023/04/04 06:46:14;;;;;;;3.73;2.10;;;7.40;48.10;;;;;;5072859;28;20479;-66
2023/04/04 06:48:42;;;;;;;2.97;2.30;;;7.40;48.20;;;;;;5072910;28;20439;-66
2023/04/04 06:51:10;;;;;;;2.43;2.00;;;7.50;47.90;;;;;;5072783;28;20229;-66
2023/04/04 06:53:38;;;;;;;3.63;2.60;;;7.50;47.50;;;;;;5072154;28;20539;-66
2023/04/04 06:56:05;;;;;;;4.27;2.43;;;7.60;47.60;;;;;;5072346;28;20526;-68
2023/04/04 06:58:32;;;;;;;5.10;2.30;;;7.60;47.10;;;;;;5072521;28;20459;-67
2023/04/04 07:00:59;;;;;;;4.30;2.70;;;7.60;47.10;;;;;;5072732;28;20451;-66
2023/04/04 07:03:26;;;;;;;3.83;2.30;;;7.70;47.10;;;;;;5072431;28;20455;-67
2023/04/04 07:05:53;;;;;;;3.90;2.20;;;7.70;46.50;;;;;;5072033;28;20486;-67
2023/04/04 07:08:21;;;;;;;3.00;2.07;;;7.80;46.80;;;;;;5063890;28;20463;-65
2023/04/04 07:10:48;;;;;;;4.73;2.30;;;7.90;46.90;;;;;;5052621;28;20539;-66
2023/04/04 07:13:15;;;;;;;3.63;2.10;;;7.90;46.60;;;;;;5069642;28;20443;-66
2023/04/04 07:15:47;;;;;;;3.63;2.20;;;8.00;46.40;;;;;;5072478;28;20538;-66
2023/04/04 07:18:14;;;;;;;4.57;2.57;;;8.00;46.20;;;;;;5070863;28;20517;-66
2023/04/04 07:20:42;;;;;;;2.63;2.40;;;8.00;46.00;;;;;;5072899;28;20543;-66
2023/04/04 07:23:09;;;;;;;3.33;2.20;;;8.10;45.80;;;;;;5071216;28;20451;-66
2023/04/04 07:25:38;;;;;;;3.13;2.27;;;8.10;45.70;;;;;;5072793;28;21032;-66
2023/04/04 07:28:04;;;;;;;4.50;2.30;;;8.10;45.90;;;;;;5072439;28;20471;-66
2023/04/04 07:30:32;;;;;;;3.97;2.27;;;8.20;45.80;;;;;;5073218;28;20427;-66
2023/04/04 07:32:59;;;;;;;4.70;2.27;;;8.30;45.50;;;;;;5072430;28;20455;-66
2023/04/04 07:35:26;;;;;;;4.80;2.20;;;8.40;45.40;;;;;;5072699;28;20494;-66
2023/04/04 07:37:53;;;;;;;3.20;1.83;;;8.40;45.60;;;;;;5072953;28;20459;-66
2023/04/04 07:40:20;;;;;;;3.10;2.20;;;8.40;44.90;;;;;;5072828;28;20462;-66
2023/04/04 07:42:49;;;;;;;3.37;2.67;;;8.50;45.70;;;;;;5071365;28;20482;-66
2023/04/04 07:45:17;;;;;;;3.90;2.40;;;8.50;44.70;;;;;;5057077;28;20538;-66
2023/04/04 07:47:44;;;;;;;3.03;2.10;;;8.60;43.90;;;;;;5072086;28;21127;-65
2023/04/04 07:50:12;;;;;;;4.57;2.17;;;8.50;44.10;;;;;;5067806;28;20466;-66
2023/04/04 07:52:38;;;;;;;2.50;2.30;;;8.60;43.90;;;;;;5073029;28;20453;-66
2023/04/04 07:55:06;;;;;;;3.50;2.23;;;8.70;44.40;;;;;;5072081;28;20912;-66
2023/04/04 07:57:33;;;;;;;4.43;2.60;;;8.80;44.30;;;;;;5069302;28;20447;-67
2023/04/04 08:00:02;;;;;;;5.50;2.40;;;8.90;44.20;;;;;;5072458;28;20481;-66
2023/04/04 08:02:31;;;;;;;3.27;2.10;;;9.00;44.10;;;;;;5063973;28;20447;-66
2023/04/04 08:04:57;;;;;;;2.97;2.13;;;9.00;43.60;;;;;;5052201;28;20456;-66
2023/04/04 08:07:24;;;;;;;3.83;2.37;;;9.10;43.90;;;;;;5070178;28;21028;-68
2023/04/04 08:09:51;;;;;;;4.17;2.10;;;9.10;43.50;;;;;;5072030;28;20866;-67
2023/04/04 08:12:18;;;;;;;3.30;2.00;;;9.30;43.80;;;;;;5071623;28;20486;-65
2023/04/04 08:14:45;;;;;;;5.20;2.00;;;9.30;42.90;;;;;;5071809;28;20471;-67
2023/04/04 08:17:17;;;;;;;4.37;2.33;;;9.40;42.80;;;;;;5071981;28;20443;-67
2023/04/04 08:19:44;;;;;;;2.93;1.90;;;9.50;42.70;;;;;;5072287;28;20537;-66
2023/04/04 08:22:11;;;;;;;2.63;2.10;;;9.50;43.20;;;;;;5071728;28;20490;-66
2023/04/04 08:24:38;;;;;;;3.83;1.90;;;9.50;42.90;;;;;;5071716;28;20454;-66
2023/04/04 08:27:05;;;;;;;3.23;2.43;;;9.60;43.00;;;;;;5071292;28;20562;-66
2023/04/04 08:29:33;;;;;;;2.10;1.90;;;9.70;43.10;;;;;;5072188;28;20504;-66
2023/04/04 08:32:00;;;;;;;2.83;2.30;;;9.80;43.60;;;;;;5071269;28;20466;-66
2023/04/04 08:34:28;;;;;;;2.50;2.30;;;9.90;43.20;;;;;;5071714;28;20451;-66
2023/04/04 08:36:55;;;;;;;2.47;2.00;;;10.00;40.90;;;;;;5071687;28;20439;-67
2023/04/04 08:39:22;;;;;;;2.67;2.23;;;10.00;41.00;;;;;;5071464;28;21103;-65
2023/04/04 08:41:57;;;;;;;3.43;2.47;;;10.10;41.40;;;;;;5070972;28;20558;-67
2023/04/04 08:44:26;;;;;;;3.07;2.47;;;10.20;41.40;;;;;;5071439;28;20458;-67
2023/04/04 08:46:55;;;;;;;2.57;2.30;;;10.30;41.50;;;;;;5071925;28;20483;-67
2023/04/04 08:49:23;;;;;;;2.40;1.93;;;10.40;42.00;;;;;;5071648;28;20494;-66
2023/04/04 08:51:52;;;;;;;3.20;2.07;;;10.50;40.90;;;;;;5071168;28;20534;-66
2023/04/04 08:54:20;;;;;;;2.73;2.33;;;10.60;40.30;;;;;;5069515;28;20568;-67
2023/04/04 08:56:48;;;;;;;3.80;2.33;;;10.60;40.40;;;;;;5071420;28;20877;-67
2023/04/04 08:59:17;;;;;;;3.90;2.30;;;10.60;39.70;;;;;;5072413;28;20450;-67
2023/04/04 09:01:44;;;;;;;3.80;2.33;;;10.70;39.70;;;;;;5070274;28;21020;-67
2023/04/04 09:04:11;;;;;;;3.13;2.03;;;10.80;40.50;;;;;;5069479;28;20447;-67
2023/04/04 09:06:38;;;;;;;2.67;2.13;;;10.90;40.80;;;;;;5070106;28;20574;-65
2023/04/04 09:09:07;;;;;;;3.07;2.30;;;10.90;40.30;;;;;;5071475;28;20447;-65
2023/04/04 09:11:35;;;;;;;6.53;2.50;;;11.00;39.30;;;;;;5070958;28;20475;-65
2023/04/04 09:14:03;;;;;;;3.80;2.17;;;11.10;38.80;;;;;;5071484;28;20467;-66
2023/04/04 09:16:30;;;;;;;3.20;2.17;;;11.10;38.80;;;;;;5071719;28;20496;-65
2023/04/04 09:18:57;;;;;;;4.33;2.50;;;11.20;38.60;;;;;;5071214;28;20522;-65
2023/04/04 09:21:25;;;;;;;4.43;2.50;;;11.30;39.00;;;;;;5070775;28;20471;-65
2023/04/04 09:24:00;;;;;;;2.40;2.17;;;11.40;38.40;;;;;;5070472;28;20966;-65
2023/04/04 09:26:28;;;;;;;2.87;1.90;;;11.40;38.40;;;;;;5070461;28;20493;-65
2023/04/04 09:28:55;;;;;;;3.83;2.00;;;11.60;39.10;;;;;;5071014;28;20479;-65
2023/04/04 09:31:25;;;;;;;4.07;2.40;;;11.70;38.50;;;;;;5070975;28;20479;-65
2023/04/04 09:33:52;;;;;;;3.80;2.30;;;11.80;37.80;;;;;;5070529;28;20475;-65
2023/04/04 09:36:19;;;;;;;5.90;2.40;;;11.80;38.80;;;;;;5070638;28;20538;-67
2023/04/04 09:38:47;;;;;;;2.87;2.23;;;11.90;38.20;;;;;;5070892;28;20534;-66
2023/04/04 09:41:15;;;;;;;5.33;2.87;;;12.00;38.20;;;;;;5071023;28;20447;-65
2023/04/04 09:43:46;;;;;;;3.73;2.27;;;12.10;37.60;;;;;;5070378;28;20538;-65
2023/04/04 09:46:14;;;;;;;3.53;2.30;;;12.10;37.50;;;;;;5070474;28;20487;-65
2023/04/04 09:48:49;;;;;;;3.00;2.00;;;12.20;37.30;;;;;;5071115;28;20791;-65
2023/04/04 09:51:16;;;;;;;2.93;2.47;;;12.30;36.50;;;;;;5071005;28;20454;-65
2023/04/04 09:53:48;;;;;;;5.53;3.20;;;12.20;36.20;;;;;;5070360;28;20530;-65
2023/04/04 09:56:14;;;;;;;3.70;2.37;;;12.30;36.60;;;;;;5069757;28;20450;-65
2023/04/04 09:58:46;;;;;;;3.67;2.13;;;12.40;37.00;;;;;;5071054;28;20503;-66
2023/04/04 10:01:14;;;;;;;5.00;2.43;;;12.50;35.90;;;;;;5070610;28;20809;-65
2023/04/04 10:03:41;;;;;;;3.63;2.33;;;12.50;36.10;;;;;;5070395;28;20451;-66
2023/04/04 10:06:10;;;;;;;3.07;2.20;;;12.60;36.70;;;;;;5069829;28;20536;-65
2023/04/04 10:08:39;;;;;;;3.83;2.00;;;12.80;37.30;;;;;;5070574;28;20458;-66
2023/04/04 10:11:07;;;;;;;3.73;2.10;;;12.80;35.50;;;;;;5070734;28;20505;-64
2023/04/04 10:13:35;;;;;;;3.63;2.37;;;12.80;35.70;;;;;;5070089;28;20447;-65
2023/04/04 10:16:03;;;;;;;3.50;2.13;;;13.00;36.70;;;;;;5069727;28;20951;-66
2023/04/04 10:18:33;;;;;;;3.47;2.30;;;13.10;36.50;;;;;;5070806;28;20528;-66
2023/04/04 10:21:02;;;;;;;4.50;2.30;;;13.20;36.00;;;;;;5070565;28;20490;-65
2023/04/04 10:23:29;;;;;;;2.57;2.07;;;13.30;36.60;;;;;;5070117;28;20550;-66
2023/04/04 10:25:58;;;;;;;2.77;2.23;;;13.40;36.70;;;;;;5069579;28;20472;-66
2023/04/04 10:28:25;;;;;;;4.90;2.63;;;13.50;36.30;;;;;;5070340;28;20995;-66
2023/04/04 10:31:02;;;;;;;3.10;2.10;;;13.50;35.80;;;;;;5071841;28;20544;-66
2023/04/04 10:33:37;;;;;;;3.47;2.30;;;13.60;35.90;;;;;;5073818;28;20451;-66
2023/04/04 10:36:09;;;;;;;2.67;2.00;;;13.70;34.90;;;;;;5073740;28;20446;-65
2023/04/04 10:38:43;;;;;;;3.57;1.87;;;13.80;35.10;;;;;;5073398;28;20467;-65
2023/04/04 10:41:13;;;;;;;3.00;2.10;;;13.90;35.60;;;;;;5073108;28;20450;-65
2023/04/04 10:43:44;;;;;;;3.13;2.20;;;14.10;35.20;;;;;;5054211;28;20563;-65
2023/04/04 10:46:15;;;;;;;5.67;2.40;;;14.20;35.80;;;;;;5069234;28;20483;-65
2023/04/04 10:48:44;;;;;;;2.60;2.07;;;14.20;34.00;;;;;;5073558;28;20475;-65
2023/04/04 10:51:11;;;;;;;4.90;2.03;;;14.20;34.50;;;;;;5073345;28;20802;-65
2023/04/04 10:53:40;;;;;;;2.63;2.30;;;14.20;34.70;;;;;;5073224;28;20539;-67
2023/04/04 10:56:07;;;;;;;2.43;2.23;;;14.40;35.30;;;;;;5073597;28;20522;-66
2023/04/04 10:58:40;;;;;;;2.43;2.23;;;14.40;35.10;;;;;;5073550;28;20554;-67
2023/04/04 11:01:07;;;;;;;3.50;2.30;;;14.50;33.90;;;;;;5071548;28;20458;-64
2023/04/04 11:04:19;;;;;;;2.00;1.80;;;14.60;33.60;;;;;;5074175;28;20535;-66
2023/04/04 11:07:07;;;;;;;6.03;2.30;;;14.60;34.60;;;;;;5073216;28;20581;-67
2023/04/04 11:09:51;;;;;;;2.30;2.03;;;14.60;33.40;;;;;;5072664;28;20483;-67
2023/04/04 11:12:22;;;;;;;6.37;3.40;;;14.60;32.90;;;;;;5073018;28;20471;-66
2023/04/04 11:15:11;;;;;;;2.30;2.10;;;14.60;34.40;;;;;;5073023;28;20458;-66
2023/04/04 11:17:57;;;;;;;2.87;2.30;;;14.70;33.80;;;;;;5071899;28;20486;-66
2023/04/04 11:20:30;;;;;;;2.37;2.10;;;14.70;34.00;;;;;;5070843;28;20451;-66
2023/04/04 11:23:07;;;;;;;2.37;2.10;;;14.80;33.40;;;;;;5072751;28;20451;-68
2023/04/04 11:25:53;;;;;;;2.77;2.30;;;14.90;32.70;;;;;;5072640;28;20460;-66
2023/04/04 11:28:28;;;;;;;2.40;2.03;;;15.00;33.60;;;;;;5073281;28;20479;-66
2023/04/04 11:31:22;;;;;;;4.57;2.43;;;15.00;33.30;;;;;;5072848;28;20555;-66
2023/04/04 11:33:57;;;;;;;3.93;2.67;;;15.10;33.40;;;;;;5065026;28;20447;-67
2023/04/04 11:36:51;;;;;;;4.53;2.27;;;15.20;32.70;;;;;;5071913;28;20532;-65
2023/04/04 11:39:29;;;;;;;2.97;2.40;;;15.30;32.00;;;;;;5065377;28;20439;-66
2023/04/04 11:42:02;;;;;;;3.83;2.30;;;15.20;31.40;;;;;;5073348;28;20467;-65
2023/04/04 11:44:30;;;;;;;3.07;2.40;;;15.10;31.90;;;;;;5071995;28;20476;-65
2023/04/04 11:47:03;;;;;;;2.47;2.10;;;15.10;32.70;;;;;;5073111;28;20506;-67
2023/04/04 11:49:31;;;;;;;3.77;2.50;;;15.20;32.20;;;;;;5073089;28;20486;-66
2023/04/04 11:51:59;;;;;;;3.63;2.20;;;15.20;32.60;;;;;;5073251;28;20452;-65
2023/04/04 11:54:28;;;;;;;5.50;2.40;;;15.30;33.40;;;;;;5072638;28;20443;-66
2023/04/04 11:56:54;;;;;;;2.97;2.40;;;15.40;33.10;;;;;;5072838;28;20471;-66
2023/04/04 11:59:22;;;;;;;3.93;2.47;;;15.50;32.40;;;;;;5073215;28;20466;-66
2023/04/04 12:01:49;;;;;;;3.27;2.50;;;15.50;32.70;;;;;;5072854;28;20534;-66
2023/04/04 12:04:18;;;;;;;2.70;2.50;;;15.60;34.10;;;;;;5072827;28;20467;-65
2023/04/04 12:06:49;;;;;;;3.07;2.07;;;15.70;33.30;;;;;;5072680;28;20462;-67
2023/04/04 12:09:19;;;;;;;2.77;2.30;;;15.70;32.50;;;;;;5072938;28;20483;-66
2023/04/04 12:11:46;;;;;;;2.30;2.10;;;15.80;32.80;;;;;;5073072;28;20487;-66
2023/04/04 12:14:17;;;;;;;4.93;2.57;;;15.90;32.50;;;;;;5072592;28;20531;-65
2023/04/04 12:16:44;;;;;;;2.30;2.10;;;15.90;31.10;;;;;;5072907;28;20459;-65
2023/04/04 12:19:12;;;;;;;5.77;2.70;;;15.90;32.00;;;;;;5072743;28;20479;-65
2023/04/04 12:21:39;;;;;;;4.00;2.60;;;16.00;32.50;;;;;;5072838;28;20475;-66
2023/04/04 12:24:07;;;;;;;3.90;2.57;;;16.00;32.00;;;;;;5071243;28;20467;-67
2023/04/04 12:26:36;;;;;;;2.63;2.27;;;16.00;32.00;;;;;;5072117;28;20455;-67
2023/04/04 12:29:04;;;;;;;5.30;2.50;;;16.10;32.10;;;;;;5071850;28;20479;-67
2023/04/04 12:31:32;;;;;;;3.33;2.40;;;16.20;32.50;;;;;;5071631;28;20914;-67
2023/04/04 12:34:00;;;;;;;3.50;2.40;;;16.30;31.60;;;;;;5071186;28;20442;-67
2023/04/04 12:36:27;;;;;;;3.87;2.40;;;16.50;32.50;;;;;;5071834;28;20546;-67
2023/04/04 12:38:59;;;;;;;2.40;2.20;;;16.50;32.30;;;;;;5071345;28;20456;-65
2023/04/04 12:41:27;;;;;;;3.60;2.17;;;16.60;31.40;;;;;;5071594;28;20479;-65
2023/04/04 12:44:02;;;;;;;2.60;2.40;;;16.60;31.40;;;;;;5071141;28;20479;-66
2023/04/04 12:46:37;;;;;;;2.43;2.23;;;16.70;30.70;;;;;;5062091;28;20447;-66
2023/04/04 12:49:06;;;;;;;3.50;2.47;;;16.70;30.30;;;;;;5072466;28;20501;-67
2023/04/04 12:51:35;;;;;;;3.77;2.43;;;16.80;31.70;;;;;;5071578;28;20455;-66
2023/04/04 12:54:04;;;;;;;2.40;2.20;;;16.60;30.40;;;;;;5070645;28;20510;-67
2023/04/04 12:56:32;;;;;;;4.20;2.53;;;16.70;31.10;;;;;;5051613;28;20443;-67
2023/04/04 12:59:04;;;;;;;2.60;2.30;;;16.80;31.40;;;;;;5055917;28;20471;-66
2023/04/04 13:01:32;;;;;;;3.53;2.60;;;17.00;31.10;;;;;;5070769;28;21145;-68